sensor_id;sensor_type;location;lat;lon;timestamp;P1;durP1;ratioP1;P2;durP2;ratioP2
75025;SDS011;63591;50.080;8.286;2022-10-31T09:50:06;5.93;;;3.20;;
75025;SDS011;63591;50.080;8.286;2022-10-31T09:58:26;7.32;;;3.40;;
75025;SDS011;63591;50.080;8.286;2022-10-31T10:00:53;6.30;;;3.43;;
75025;SDS011;63591;50.080;8.286;2022-10-31T10:04:58;6.78;;;3.30;;
75025;SDS011;63591;50.080;8.286;2022-10-31T10:28:25;11.33;;;5.23;;
75025;SDS011;63591;50.080;8.286;2022-10-31T10:30:56;12.98;;;5.30;;
75025;SDS011;63591;50.080;8.286;2022-10-31T10:33:31;12.55;;;5.15;;
75025;SDS011;63591;50.080;8.286;2022-10-31T10:36:02;13.73;;;5.40;;
75025;SDS011;63591;50.080;8.286;2022-10-31T10:38:42;11.98;;;5.13;;
75025;SDS011;63591;50.080;8.286;2022-10-31T10:41:19;12.40;;;5.43;;
75025;SDS011;63591;50.080;8.286;2022-10-31T10:43:49;10.18;;;5.60;;
75025;SDS011;63591;50.080;8.286;2022-10-31T10:49:23;11.65;;;5.30;;
75025;SDS011;63591;50.080;8.286;2022-10-31T10:51:58;9.75;;;4.82;;
75025;SDS011;63591;50.080;8.286;2022-10-31T10:59:49;13.52;;;5.80;;
75025;SDS011;63591;50.080;8.286;2022-10-31T11:02:17;11.25;;;5.53;;
75025;SDS011;63591;50.080;8.286;2022-10-31T11:04:44;10.10;;;5.07;;
75025;SDS011;63591;50.080;8.286;2022-10-31T11:07:14;10.47;;;5.07;;
75025;SDS011;63591;50.080;8.286;2022-10-31T11:09:40;13.27;;;5.78;;
75025;SDS011;63591;50.080;8.286;2022-10-31T11:12:09;10.93;;;5.57;;
75025;SDS011;63591;50.080;8.286;2022-10-31T11:14:48;10.52;;;5.10;;
75025;SDS011;63591;50.080;8.286;2022-10-31T11:17:20;12.40;;;5.60;;
75025;SDS011;63591;50.080;8.286;2022-10-31T11:22:43;9.68;;;5.30;;
75025;SDS011;63591;50.080;8.286;2022-10-31T11:27:45;8.32;;;5.22;;
75025;SDS011;63591;50.080;8.286;2022-10-31T11:30:12;9.77;;;5.30;;
75025;SDS011;63591;50.080;8.286;2022-10-31T11:32:47;10.80;;;5.40;;
75025;SDS011;63591;50.080;8.286;2022-10-31T11:35:14;10.57;;;5.18;;
75025;SDS011;63591;50.080;8.286;2022-10-31T11:37:43;9.20;;;5.03;;
75025;SDS011;63591;50.080;8.286;2022-10-31T11:40:24;9.10;;;4.80;;
75025;SDS011;63591;50.080;8.286;2022-10-31T11:42:51;8.70;;;4.80;;
75025;SDS011;63591;50.080;8.286;2022-10-31T11:47:48;10.73;;;5.30;;
75025;SDS011;63591;50.080;8.286;2022-10-31T11:50:19;10.00;;;5.05;;
75025;SDS011;63591;50.080;8.286;2022-10-31T11:52:50;10.05;;;4.97;;
75025;SDS011;63591;50.080;8.286;2022-10-31T11:55:29;9.03;;;4.90;;
75025;SDS011;63591;50.080;8.286;2022-10-31T11:58:02;9.10;;;4.60;;
75025;SDS011;63591;50.080;8.286;2022-10-31T12:00:32;9.77;;;5.43;;
75025;SDS011;63591;50.080;8.286;2022-10-31T12:06:10;10.43;;;5.33;;
75025;SDS011;63591;50.080;8.286;2022-10-31T12:08:42;9.45;;;5.20;;
75025;SDS011;63591;50.080;8.286;2022-10-31T12:11:22;11.20;;;5.85;;
75025;SDS011;63591;50.080;8.286;2022-10-31T12:14:08;10.37;;;5.00;;
75025;SDS011;63591;50.080;8.286;2022-10-31T12:27:01;9.50;;;5.00;;
75025;SDS011;63591;50.080;8.286;2022-10-31T12:32:31;9.25;;;5.25;;
75025;SDS011;63591;50.080;8.286;2022-10-31T12:41:43;8.57;;;5.03;;
75025;SDS011;63591;50.080;8.286;2022-10-31T12:44:14;9.98;;;5.63;;
75025;SDS011;63591;50.080;8.286;2022-10-31T12:55:10;8.57;;;5.07;;
75025;SDS011;63591;50.080;8.286;2022-10-31T12:57:42;9.77;;;5.55;;
75025;SDS011;63591;50.080;8.286;2022-10-31T13:00:15;9.93;;;5.60;;
75025;SDS011;63591;50.080;8.286;2022-10-31T13:02:50;9.38;;;5.20;;
75025;SDS011;63591;50.080;8.286;2022-10-31T13:08:17;11.43;;;5.07;;
75025;SDS011;63591;50.080;8.286;2022-10-31T13:13:31;9.50;;;4.93;;
75025;SDS011;63591;50.080;8.286;2022-10-31T13:16:02;9.60;;;4.75;;
75025;SDS011;63591;50.080;8.286;2022-10-31T13:18:35;9.45;;;5.13;;
75025;SDS011;63591;50.080;8.286;2022-10-31T13:21:08;10.43;;;4.80;;
75025;SDS011;63591;50.080;8.286;2022-10-31T13:23:38;8.77;;;4.88;;
75025;SDS011;63591;50.080;8.286;2022-10-31T13:26:41;9.90;;;5.25;;
75025;SDS011;63591;50.080;8.286;2022-10-31T13:29:11;8.15;;;4.70;;
75025;SDS011;63591;50.080;8.286;2022-10-31T13:31:57;9.07;;;5.03;;
75025;SDS011;63591;50.080;8.286;2022-10-31T13:34:25;9.00;;;4.73;;
75025;SDS011;63591;50.080;8.286;2022-10-31T13:37:01;9.48;;;5.15;;
75025;SDS011;63591;50.080;8.286;2022-10-31T13:42:12;10.77;;;5.20;;
75025;SDS011;63591;50.080;8.286;2022-10-31T13:44:43;11.07;;;5.20;;
75025;SDS011;63591;50.080;8.286;2022-10-31T13:47:24;10.60;;;5.30;;
75025;SDS011;63591;50.080;8.286;2022-10-31T13:49:51;10.82;;;4.70;;
75025;SDS011;63591;50.080;8.286;2022-10-31T13:55:44;8.77;;;4.88;;
75025;SDS011;63591;50.080;8.286;2022-10-31T13:58:19;11.35;;;5.40;;
75025;SDS011;63591;50.080;8.286;2022-10-31T14:00:59;9.57;;;4.73;;
75025;SDS011;63591;50.080;8.286;2022-10-31T14:03:27;8.30;;;4.88;;
75025;SDS011;63591;50.080;8.286;2022-10-31T14:05:53;12.68;;;5.30;;
75025;SDS011;63591;50.080;8.286;2022-10-31T14:08:21;11.35;;;5.38;;
75025;SDS011;63591;50.080;8.286;2022-10-31T14:10:49;9.23;;;4.88;;
75025;SDS011;63591;50.080;8.286;2022-10-31T14:15:54;11.63;;;5.38;;
75025;SDS011;63591;50.080;8.286;2022-10-31T14:18:28;11.23;;;5.25;;
75025;SDS011;63591;50.080;8.286;2022-10-31T14:20:55;8.55;;;4.90;;
75025;SDS011;63591;50.080;8.286;2022-10-31T14:28:44;9.47;;;4.80;;
75025;SDS011;63591;50.080;8.286;2022-10-31T14:31:27;9.40;;;5.50;;
75025;SDS011;63591;50.080;8.286;2022-10-31T14:33:53;9.32;;;5.20;;
75025;SDS011;63591;50.080;8.286;2022-10-31T14:36:39;9.07;;;5.10;;
75025;SDS011;63591;50.080;8.286;2022-10-31T14:39:18;9.40;;;5.50;;
75025;SDS011;63591;50.080;8.286;2022-10-31T14:45:12;10.07;;;5.40;;
75025;SDS011;63591;50.080;8.286;2022-10-31T14:52:37;11.97;;;5.33;;
75025;SDS011;63591;50.080;8.286;2022-10-31T14:55:05;10.20;;;5.28;;
75025;SDS011;63591;50.080;8.286;2022-10-31T14:57:35;9.57;;;5.45;;
75025;SDS011;63591;50.080;8.286;2022-10-31T15:00:07;10.60;;;5.80;;
75025;SDS011;63591;50.080;8.286;2022-10-31T15:02:43;9.20;;;5.20;;
75025;SDS011;63591;50.080;8.286;2022-10-31T15:05:32;10.63;;;5.55;;
75025;SDS011;63591;50.080;8.286;2022-10-31T15:08:12;9.23;;;5.88;;
75025;SDS011;63591;50.080;8.286;2022-10-31T15:10:50;8.52;;;5.30;;
75025;SDS011;63591;50.080;8.286;2022-10-31T15:13:19;10.60;;;5.80;;
75025;SDS011;63591;50.080;8.286;2022-10-31T15:15:52;10.93;;;5.50;;
75025;SDS011;63591;50.080;8.286;2022-10-31T15:18:21;11.00;;;5.30;;
75025;SDS011;63591;50.080;8.286;2022-10-31T15:20:50;9.93;;;4.90;;
75025;SDS011;63591;50.080;8.286;2022-10-31T15:23:24;9.23;;;5.35;;
75025;SDS011;63591;50.080;8.286;2022-10-31T15:26:01;10.85;;;5.85;;
75025;SDS011;63591;50.080;8.286;2022-10-31T15:28:29;15.60;;;6.28;;
75025;SDS011;63591;50.080;8.286;2022-10-31T15:30:56;15.07;;;5.78;;
75025;SDS011;63591;50.080;8.286;2022-10-31T15:33:25;12.00;;;5.90;;
75025;SDS011;63591;50.080;8.286;2022-10-31T15:35:57;16.92;;;6.72;;
75025;SDS011;63591;50.080;8.286;2022-10-31T15:38:24;11.18;;;5.90;;
75025;SDS011;63591;50.080;8.286;2022-10-31T15:40:51;12.85;;;6.53;;
75025;SDS011;63591;50.080;8.286;2022-10-31T15:43:29;12.18;;;5.88;;
75025;SDS011;63591;50.080;8.286;2022-10-31T15:46:00;12.73;;;6.47;;
75025;SDS011;63591;50.080;8.286;2022-10-31T15:48:27;13.05;;;6.35;;
75025;SDS011;63591;50.080;8.286;2022-10-31T15:50:53;14.57;;;6.60;;
75025;SDS011;63591;50.080;8.286;2022-10-31T15:53:24;13.73;;;6.53;;
75025;SDS011;63591;50.080;8.286;2022-10-31T15:55:53;14.20;;;6.43;;
75025;SDS011;63591;50.080;8.286;2022-10-31T15:58:20;16.25;;;6.13;;
75025;SDS011;63591;50.080;8.286;2022-10-31T16:00:56;14.77;;;6.10;;
75025;SDS011;63591;50.080;8.286;2022-10-31T16:03:25;11.10;;;5.90;;
75025;SDS011;63591;50.080;8.286;2022-10-31T16:05:55;14.25;;;6.47;;
75025;SDS011;63591;50.080;8.286;2022-10-31T16:10:54;18.13;;;6.47;;
75025;SDS011;63591;50.080;8.286;2022-10-31T16:13:23;13.00;;;6.05;;
75025;SDS011;63591;50.080;8.286;2022-10-31T16:15:58;14.07;;;6.28;;
75025;SDS011;63591;50.080;8.286;2022-10-31T16:18:25;13.48;;;6.30;;
75025;SDS011;63591;50.080;8.286;2022-10-31T16:20:53;13.70;;;6.30;;
75025;SDS011;63591;50.080;8.286;2022-10-31T16:23:21;11.65;;;5.97;;
75025;SDS011;63591;50.080;8.286;2022-10-31T16:25:49;11.68;;;6.57;;
75025;SDS011;63591;50.080;8.286;2022-10-31T16:28:20;13.00;;;6.10;;
75025;SDS011;63591;50.080;8.286;2022-10-31T16:30:49;13.02;;;6.55;;
75025;SDS011;63591;50.080;8.286;2022-10-31T16:35:48;11.65;;;6.10;;
75025;SDS011;63591;50.080;8.286;2022-10-31T16:38:13;15.07;;;6.73;;
75025;SDS011;63591;50.080;8.286;2022-10-31T16:40:39;13.20;;;6.60;;
75025;SDS011;63591;50.080;8.286;2022-10-31T16:43:04;12.07;;;6.05;;
75025;SDS011;63591;50.080;8.286;2022-10-31T16:45:30;14.57;;;6.33;;
75025;SDS011;63591;50.080;8.286;2022-10-31T16:48:06;11.27;;;5.63;;
75025;SDS011;63591;50.080;8.286;2022-10-31T16:50:36;12.00;;;5.93;;
75025;SDS011;63591;50.080;8.286;2022-10-31T16:53:02;11.65;;;5.93;;
75025;SDS011;63591;50.080;8.286;2022-10-31T16:55:28;12.13;;;5.85;;
75025;SDS011;63591;50.080;8.286;2022-10-31T16:57:54;11.07;;;5.80;;
75025;SDS011;63591;50.080;8.286;2022-10-31T17:00:21;9.75;;;5.47;;
75025;SDS011;63591;50.080;8.286;2022-10-31T17:02:48;10.07;;;6.00;;
75025;SDS011;63591;50.080;8.286;2022-10-31T17:05:17;10.68;;;5.72;;
75025;SDS011;63591;50.080;8.286;2022-10-31T17:07:43;11.10;;;5.78;;
75025;SDS011;63591;50.080;8.286;2022-10-31T17:10:10;11.20;;;6.07;;
75025;SDS011;63591;50.080;8.286;2022-10-31T17:12:36;10.50;;;5.93;;
75025;SDS011;63591;50.080;8.286;2022-10-31T17:15:04;12.85;;;6.07;;
75025;SDS011;63591;50.080;8.286;2022-10-31T17:17:31;11.57;;;6.15;;
75025;SDS011;63591;50.080;8.286;2022-10-31T17:19:56;11.40;;;6.00;;
75025;SDS011;63591;50.080;8.286;2022-10-31T17:22:22;11.50;;;6.13;;
75025;SDS011;63591;50.080;8.286;2022-10-31T17:24:47;10.63;;;5.70;;
75025;SDS011;63591;50.080;8.286;2022-10-31T17:27:12;10.73;;;5.43;;
75025;SDS011;63591;50.080;8.286;2022-10-31T17:29:38;9.73;;;5.33;;
75025;SDS011;63591;50.080;8.286;2022-10-31T17:32:03;9.40;;;5.60;;
75025;SDS011;63591;50.080;8.286;2022-10-31T17:34:29;8.95;;;5.40;;
75025;SDS011;63591;50.080;8.286;2022-10-31T17:36:54;11.27;;;5.67;;
75025;SDS011;63591;50.080;8.286;2022-10-31T17:39:20;11.02;;;5.60;;
75025;SDS011;63591;50.080;8.286;2022-10-31T17:41:48;10.57;;;5.40;;
75025;SDS011;63591;50.080;8.286;2022-10-31T17:44:14;10.15;;;5.70;;
75025;SDS011;63591;50.080;8.286;2022-10-31T17:46:40;9.43;;;5.37;;
75025;SDS011;63591;50.080;8.286;2022-10-31T17:49:05;9.07;;;5.30;;
75025;SDS011;63591;50.080;8.286;2022-10-31T17:51:32;11.65;;;5.75;;
75025;SDS011;63591;50.080;8.286;2022-10-31T17:53:58;9.53;;;5.30;;
75025;SDS011;63591;50.080;8.286;2022-10-31T17:56:23;9.70;;;5.50;;
75025;SDS011;63591;50.080;8.286;2022-10-31T17:58:49;11.27;;;5.80;;
75025;SDS011;63591;50.080;8.286;2022-10-31T18:01:15;9.73;;;5.50;;
75025;SDS011;63591;50.080;8.286;2022-10-31T18:03:42;10.70;;;6.13;;
75025;SDS011;63591;50.080;8.286;2022-10-31T18:06:08;10.20;;;5.47;;
75025;SDS011;63591;50.080;8.286;2022-10-31T18:08:36;10.13;;;5.65;;
75025;SDS011;63591;50.080;8.286;2022-10-31T18:11:05;11.48;;;6.03;;
75025;SDS011;63591;50.080;8.286;2022-10-31T18:13:33;9.80;;;5.50;;
75025;SDS011;63591;50.080;8.286;2022-10-31T18:15:59;11.50;;;5.90;;
75025;SDS011;63591;50.080;8.286;2022-10-31T18:18:24;10.07;;;5.67;;
75025;SDS011;63591;50.080;8.286;2022-10-31T18:20:49;9.53;;;5.70;;
75025;SDS011;63591;50.080;8.286;2022-10-31T18:23:15;10.90;;;5.70;;
75025;SDS011;63591;50.080;8.286;2022-10-31T18:25:40;10.47;;;5.30;;
75025;SDS011;63591;50.080;8.286;2022-10-31T18:28:07;11.35;;;6.30;;
75025;SDS011;63591;50.080;8.286;2022-10-31T18:30:33;11.90;;;6.60;;
75025;SDS011;63591;50.080;8.286;2022-10-31T18:33:03;10.77;;;6.13;;
75025;SDS011;63591;50.080;8.286;2022-10-31T18:35:28;11.87;;;6.47;;
75025;SDS011;63591;50.080;8.286;2022-10-31T18:37:53;11.00;;;6.57;;
75025;SDS011;63591;50.080;8.286;2022-10-31T18:40:19;11.80;;;6.80;;
75025;SDS011;63591;50.080;8.286;2022-10-31T18:42:44;14.97;;;7.70;;
75025;SDS011;63591;50.080;8.286;2022-10-31T18:45:09;12.73;;;7.87;;
75025;SDS011;63591;50.080;8.286;2022-10-31T18:47:35;13.50;;;8.27;;
75025;SDS011;63591;50.080;8.286;2022-10-31T18:50:00;12.97;;;7.87;;
75025;SDS011;63591;50.080;8.286;2022-10-31T18:52:25;14.53;;;8.27;;
75025;SDS011;63591;50.080;8.286;2022-10-31T18:54:50;15.47;;;8.90;;
75025;SDS011;63591;50.080;8.286;2022-10-31T18:57:16;15.50;;;8.83;;
75025;SDS011;63591;50.080;8.286;2022-10-31T18:59:41;14.87;;;9.37;;
75025;SDS011;63591;50.080;8.286;2022-10-31T19:02:08;14.77;;;8.70;;
75025;SDS011;63591;50.080;8.286;2022-10-31T19:04:36;15.60;;;8.85;;
75025;SDS011;63591;50.080;8.286;2022-10-31T19:07:01;14.90;;;8.97;;
75025;SDS011;63591;50.080;8.286;2022-10-31T19:09:26;14.90;;;9.30;;
75025;SDS011;63591;50.080;8.286;2022-10-31T19:11:54;15.23;;;8.43;;
75025;SDS011;63591;50.080;8.286;2022-10-31T19:14:20;14.57;;;8.57;;
75025;SDS011;63591;50.080;8.286;2022-10-31T19:16:45;14.67;;;8.50;;
75025;SDS011;63591;50.080;8.286;2022-10-31T19:19:10;14.95;;;8.52;;
75025;SDS011;63591;50.080;8.286;2022-10-31T19:21:36;15.47;;;8.23;;
75025;SDS011;63591;50.080;8.286;2022-10-31T19:24:01;13.10;;;8.37;;
75025;SDS011;63591;50.080;8.286;2022-10-31T19:26:26;14.70;;;8.00;;
75025;SDS011;63591;50.080;8.286;2022-10-31T19:28:52;13.67;;;8.23;;
75025;SDS011;63591;50.080;8.286;2022-10-31T19:31:19;13.57;;;8.40;;
75025;SDS011;63591;50.080;8.286;2022-10-31T19:33:45;12.60;;;8.13;;
75025;SDS011;63591;50.080;8.286;2022-10-31T19:36:12;13.35;;;8.27;;
75025;SDS011;63591;50.080;8.286;2022-10-31T19:38:42;12.57;;;7.50;;
75025;SDS011;63591;50.080;8.286;2022-10-31T19:41:13;14.48;;;7.82;;
75025;SDS011;63591;50.080;8.286;2022-10-31T19:43:42;13.13;;;7.47;;
75025;SDS011;63591;50.080;8.286;2022-10-31T19:46:07;13.15;;;7.55;;
75025;SDS011;63591;50.080;8.286;2022-10-31T19:48:35;13.98;;;7.50;;
75025;SDS011;63591;50.080;8.286;2022-10-31T19:51:03;13.33;;;7.67;;
75025;SDS011;63591;50.080;8.286;2022-10-31T19:53:36;12.52;;;7.65;;
75025;SDS011;63591;50.080;8.286;2022-10-31T19:56:03;14.05;;;7.80;;
75025;SDS011;63591;50.080;8.286;2022-10-31T19:58:30;13.88;;;7.90;;
75025;SDS011;63591;50.080;8.286;2022-10-31T20:00:56;13.60;;;8.73;;
75025;SDS011;63591;50.080;8.286;2022-10-31T20:03:22;13.47;;;7.90;;
75025;SDS011;63591;50.080;8.286;2022-10-31T20:05:48;13.68;;;7.68;;
75025;SDS011;63591;50.080;8.286;2022-10-31T20:08:16;12.03;;;7.43;;
75025;SDS011;63591;50.080;8.286;2022-10-31T20:10:55;13.48;;;7.82;;
75025;SDS011;63591;50.080;8.286;2022-10-31T20:13:22;15.65;;;8.20;;
75025;SDS011;63591;50.080;8.286;2022-10-31T20:15:49;15.80;;;7.53;;
75025;SDS011;63591;50.080;8.286;2022-10-31T20:18:14;14.23;;;8.50;;
75025;SDS011;63591;50.080;8.286;2022-10-31T20:20:40;12.40;;;7.50;;
75025;SDS011;63591;50.080;8.286;2022-10-31T20:23:05;16.00;;;7.53;;
75025;SDS011;63591;50.080;8.286;2022-10-31T20:25:30;14.17;;;7.70;;
75025;SDS011;63591;50.080;8.286;2022-10-31T20:27:57;13.95;;;7.80;;
75025;SDS011;63591;50.080;8.286;2022-10-31T20:30:23;11.97;;;7.30;;
75025;SDS011;63591;50.080;8.286;2022-10-31T20:32:48;12.52;;;7.75;;
75025;SDS011;63591;50.080;8.286;2022-10-31T20:35:13;13.63;;;7.67;;
75025;SDS011;63591;50.080;8.286;2022-10-31T20:37:39;12.07;;;7.43;;
75025;SDS011;63591;50.080;8.286;2022-10-31T20:40:04;15.00;;;7.57;;
75025;SDS011;63591;50.080;8.286;2022-10-31T20:42:30;12.77;;;7.60;;
75025;SDS011;63591;50.080;8.286;2022-10-31T20:44:55;14.97;;;8.07;;
75025;SDS011;63591;50.080;8.286;2022-10-31T20:47:20;10.20;;;7.00;;
75025;SDS011;63591;50.080;8.286;2022-10-31T20:49:46;12.73;;;7.60;;
75025;SDS011;63591;50.080;8.286;2022-10-31T20:52:11;13.17;;;7.43;;
75025;SDS011;63591;50.080;8.286;2022-10-31T20:54:36;12.07;;;7.33;;
75025;SDS011;63591;50.080;8.286;2022-10-31T20:57:02;11.47;;;7.17;;
75025;SDS011;63591;50.080;8.286;2022-10-31T20:59:27;13.18;;;7.10;;
75025;SDS011;63591;50.080;8.286;2022-10-31T21:01:52;10.97;;;6.87;;
75025;SDS011;63591;50.080;8.286;2022-10-31T21:04:18;12.27;;;6.87;;
75025;SDS011;63591;50.080;8.286;2022-10-31T21:06:43;14.50;;;7.60;;
75025;SDS011;63591;50.080;8.286;2022-10-31T21:09:08;11.43;;;7.40;;
75025;SDS011;63591;50.080;8.286;2022-10-31T21:11:34;12.57;;;7.57;;
75025;SDS011;63591;50.080;8.286;2022-10-31T21:13:59;12.27;;;7.43;;
75025;SDS011;63591;50.080;8.286;2022-10-31T21:16:29;12.60;;;7.10;;
75025;SDS011;63591;50.080;8.286;2022-10-31T21:18:58;12.88;;;7.18;;
75025;SDS011;63591;50.080;8.286;2022-10-31T21:21:25;12.63;;;7.20;;
75025;SDS011;63591;50.080;8.286;2022-10-31T21:23:53;11.90;;;7.07;;
75025;SDS011;63591;50.080;8.286;2022-10-31T21:26:39;12.57;;;7.20;;
75025;SDS011;63591;50.080;8.286;2022-10-31T21:29:06;11.70;;;6.95;;
75025;SDS011;63591;50.080;8.286;2022-10-31T21:31:33;12.07;;;7.43;;
75025;SDS011;63591;50.080;8.286;2022-10-31T21:33:59;11.35;;;6.72;;
75025;SDS011;63591;50.080;8.286;2022-10-31T21:36:25;11.60;;;6.70;;
75025;SDS011;63591;50.080;8.286;2022-10-31T21:38:51;10.70;;;6.63;;
75025;SDS011;63591;50.080;8.286;2022-10-31T21:41:18;14.33;;;7.33;;
75025;SDS011;63591;50.080;8.286;2022-10-31T21:43:45;12.52;;;6.97;;
75025;SDS011;63591;50.080;8.286;2022-10-31T21:46:13;10.93;;;7.00;;
75025;SDS011;63591;50.080;8.286;2022-10-31T21:48:41;11.73;;;6.82;;
75025;SDS011;63591;50.080;8.286;2022-10-31T21:51:11;11.75;;;7.15;;
75025;SDS011;63591;50.080;8.286;2022-10-31T21:53:38;11.10;;;6.63;;
75025;SDS011;63591;50.080;8.286;2022-10-31T21:56:23;11.00;;;6.43;;
75025;SDS011;63591;50.080;8.286;2022-10-31T21:58:49;13.68;;;6.57;;
75025;SDS011;63591;50.080;8.286;2022-10-31T22:01:15;11.35;;;7.07;;
75025;SDS011;63591;50.080;8.286;2022-10-31T22:03:40;11.47;;;6.77;;
75025;SDS011;63591;50.080;8.286;2022-10-31T22:06:07;12.65;;;6.97;;
75025;SDS011;63591;50.080;8.286;2022-10-31T22:08:34;10.67;;;6.57;;
75025;SDS011;63591;50.080;8.286;2022-10-31T22:11:03;12.48;;;6.72;;
75025;SDS011;63591;50.080;8.286;2022-10-31T22:13:31;11.77;;;6.90;;
75025;SDS011;63591;50.080;8.286;2022-10-31T22:16:05;11.70;;;6.30;;
75025;SDS011;63591;50.080;8.286;2022-10-31T22:18:38;13.03;;;6.77;;
75025;SDS011;63591;50.080;8.286;2022-10-31T22:21:06;11.43;;;6.60;;
75025;SDS011;63591;50.080;8.286;2022-10-31T22:23:43;10.82;;;6.43;;
75025;SDS011;63591;50.080;8.286;2022-10-31T22:26:13;10.88;;;6.40;;
75025;SDS011;63591;50.080;8.286;2022-10-31T22:28:40;9.88;;;5.90;;
75025;SDS011;63591;50.080;8.286;2022-10-31T22:31:13;10.20;;;6.37;;
75025;SDS011;63591;50.080;8.286;2022-10-31T22:33:40;12.65;;;6.57;;
75025;SDS011;63591;50.080;8.286;2022-10-31T22:36:07;9.98;;;6.30;;
75025;SDS011;63591;50.080;8.286;2022-10-31T22:38:35;11.25;;;6.13;;
75025;SDS011;63591;50.080;8.286;2022-10-31T22:41:05;10.10;;;6.10;;
75025;SDS011;63591;50.080;8.286;2022-10-31T22:43:34;11.65;;;6.65;;
75025;SDS011;63591;50.080;8.286;2022-10-31T22:46:01;11.83;;;6.87;;
75025;SDS011;63591;50.080;8.286;2022-10-31T22:48:29;11.30;;;6.45;;
75025;SDS011;63591;50.080;8.286;2022-10-31T22:53:35;9.30;;;5.85;;
75025;SDS011;63591;50.080;8.286;2022-10-31T22:56:02;13.38;;;6.28;;
75025;SDS011;63591;50.080;8.286;2022-10-31T22:58:28;10.27;;;6.13;;
75025;SDS011;63591;50.080;8.286;2022-10-31T23:00:54;11.55;;;6.22;;
75025;SDS011;63591;50.080;8.286;2022-10-31T23:03:20;10.85;;;5.90;;
75025;SDS011;63591;50.080;8.286;2022-10-31T23:06:19;10.30;;;6.23;;
75025;SDS011;63591;50.080;8.286;2022-10-31T23:08:38;12.18;;;6.68;;
75025;SDS011;63591;50.080;8.286;2022-10-31T23:11:26;11.80;;;6.27;;
75025;SDS011;63591;50.080;8.286;2022-10-31T23:13:57;11.85;;;6.38;;
75025;SDS011;63591;50.080;8.286;2022-10-31T23:16:32;9.77;;;5.80;;
75025;SDS011;63591;50.080;8.286;2022-10-31T23:18:59;13.43;;;6.75;;
75025;SDS011;63591;50.080;8.286;2022-10-31T23:21:25;11.37;;;6.50;;
75025;SDS011;63591;50.080;8.286;2022-10-31T23:24:10;12.27;;;6.40;;
75025;SDS011;63591;50.080;8.286;2022-10-31T23:26:37;10.52;;;6.20;;
75025;SDS011;63591;50.080;8.286;2022-10-31T23:29:23;11.60;;;6.45;;
75025;SDS011;63591;50.080;8.286;2022-10-31T23:31:49;12.00;;;6.37;;
75025;SDS011;63591;50.080;8.286;2022-10-31T23:34:14;11.43;;;6.40;;
75025;SDS011;63591;50.080;8.286;2022-10-31T23:36:39;12.37;;;6.50;;
75025;SDS011;63591;50.080;8.286;2022-10-31T23:39:05;11.63;;;6.20;;
75025;SDS011;63591;50.080;8.286;2022-10-31T23:41:30;10.33;;;5.80;;
75025;SDS011;63591;50.080;8.286;2022-10-31T23:43:55;9.87;;;6.03;;
75025;SDS011;63591;50.080;8.286;2022-10-31T23:46:21;11.37;;;6.50;;
75025;SDS011;63591;50.080;8.286;2022-10-31T23:48:46;12.27;;;6.50;;
75025;SDS011;63591;50.080;8.286;2022-10-31T23:51:13;10.18;;;6.40;;
75025;SDS011;63591;50.080;8.286;2022-10-31T23:53:39;10.67;;;6.40;;
75025;SDS011;63591;50.080;8.286;2022-10-31T23:56:04;11.93;;;6.17;;
75025;SDS011;63591;50.080;8.286;2022-10-31T23:58:30;12.10;;;6.50;;
